Time;durP1;ratioP1;P1;durP2;ratioP2;P2;SDS_P1;SDS_P2;PMS_P1;PMS_P2;Temp;Humidity;BMP_temperature;BMP_pressure;BME280_temperature;BME280_humidity;BME280_pressure;Samples;Min_cycle;Max_cycle;Signal;HPM_P1;HPM_P2
2021/06/03 00:02:19;;;;;;;6.43;5.33;;;19.30;98.20;;;;;;4995632;28;20488;-74
2021/06/03 00:04:46;;;;;;;6.47;5.00;;;19.30;97.80;;;;;;5013353;28;20477;-73
2021/06/03 00:07:13;;;;;;;5.53;5.03;;;19.30;98.00;;;;;;5003707;28;20461;-73
2021/06/03 00:09:43;;;;;;;6.00;5.40;;;19.30;98.40;;;;;;5011670;28;20465;-74
2021/06/03 00:12:10;;;;;;;6.20;5.30;;;19.20;98.20;;;;;;5001819;28;20529;-74
2021/06/03 00:14:38;;;;;;;5.43;4.93;;;19.20;98.40;;;;;;4995661;28;20466;-74
2021/06/03 00:17:05;;;;;;;9.37;5.73;;;19.00;98.80;;;;;;5006560;28;20461;-74
2021/06/03 00:19:32;;;;;;;5.83;5.27;;;19.00;99.40;;;;;;5013577;28;20551;-74
2021/06/03 00:21:59;;;;;;;7.23;5.13;;;18.90;99.40;;;;;;5017418;28;20799;-73
2021/06/03 00:24:26;;;;;;;6.70;5.10;;;18.90;99.90;;;;;;5012499;28;20918;-74
2021/06/03 00:26:53;;;;;;;6.90;5.50;;;18.80;99.90;;;;;;5000246;28;20449;-74
2021/06/03 00:29:20;;;;;;;6.37;5.77;;;18.70;99.90;;;;;;4994252;28;20457;-74
2021/06/03 00:31:47;;;;;;;7.00;5.77;;;18.60;99.90;;;;;;4996906;28;20468;-74
2021/06/03 00:34:16;;;;;;;7.13;6.40;;;18.70;99.90;;;;;;5013393;28;20892;-73
2021/06/03 00:36:43;;;;;;;6.00;5.20;;;18.70;99.90;;;;;;4995048;28;20835;-75
2021/06/03 00:39:10;;;;;;;6.10;5.60;;;18.60;99.90;;;;;;4992487;28;20845;-73
2021/06/03 00:41:37;;;;;;;7.87;5.00;;;18.50;99.90;;;;;;4999856;28;20446;-74
2021/06/03 00:44:04;;;;;;;6.43;5.47;;;18.40;99.90;;;;;;4993320;28;20935;-74
2021/06/03 00:46:31;;;;;;;5.60;5.10;;;18.40;99.90;;;;;;4994550;28;20435;-74
2021/06/03 00:48:59;;;;;;;5.57;5.03;;;18.30;99.90;;;;;;4993008;28;20508;-74
2021/06/03 00:51:29;;;;;;;7.80;5.73;;;18.20;99.90;;;;;;5009089;28;20422;-75
2021/06/03 00:53:56;;;;;;;6.30;5.00;;;18.10;99.90;;;;;;4989387;28;20461;-73
2021/06/03 00:56:23;;;;;;;6.50;5.90;;;18.10;99.90;;;;;;5001192;28;20545;-74
2021/06/03 00:58:50;;;;;;;7.40;5.37;;;18.10;99.90;;;;;;5005239;28;20487;-74
2021/06/03 01:01:23;;;;;;;6.03;5.43;;;18.00;99.90;;;;;;4979600;28;20449;-74
2021/06/03 01:03:53;;;;;;;6.10;5.20;;;18.10;99.90;;;;;;4992631;28;20429;-74
2021/06/03 01:06:20;;;;;;;7.70;6.10;;;18.00;99.90;;;;;;4993356;28;20870;-73
2021/06/03 01:08:59;;;;;;;7.17;5.73;;;17.90;99.90;;;;;;4992052;28;20884;-73
2021/06/03 01:11:37;;;;;;;7.57;5.90;;;18.00;99.90;;;;;;5008301;28;20451;-74
2021/06/03 01:14:14;;;;;;;6.50;5.40;;;18.00;99.90;;;;;;5012109;28;20461;-74
2021/06/03 01:16:42;;;;;;;7.83;6.00;;;17.90;99.90;;;;;;5010560;28;20465;-74
2021/06/03 01:19:13;;;;;;;8.87;5.27;;;17.90;99.90;;;;;;4993276;28;20466;-74
2021/06/03 01:21:51;;;;;;;6.43;5.50;;;18.00;99.90;;;;;;5005841;28;20472;-74
2021/06/03 01:24:29;;;;;;;6.30;5.70;;;17.90;99.90;;;;;;4993402;28;20461;-74
2021/06/03 01:27:06;;;;;;;7.40;5.60;;;18.00;99.90;;;;;;5007521;28;20468;-75
2021/06/03 01:29:56;;;;;;;5.33;4.83;;;18.00;99.90;;;;;;5012877;28;20519;-74
2021/06/03 01:32:25;;;;;;;8.90;5.57;;;18.00;99.90;;;;;;5011935;28;20799;-73
2021/06/03 01:34:53;;;;;;;7.20;5.73;;;18.00;99.90;;;;;;4992780;28;20483;-74
2021/06/03 01:37:22;;;;;;;7.30;5.37;;;18.00;99.90;;;;;;4997622;28;20564;-74
2021/06/03 01:39:51;;;;;;;5.90;5.40;;;18.00;99.90;;;;;;5010679;28;20465;-73
2021/06/03 01:42:19;;;;;;;6.77;5.70;;;18.00;99.90;;;;;;4994007;28;20446;-74
2021/06/03 01:44:47;;;;;;;6.20;5.40;;;18.00;99.90;;;;;;4991650;28;20476;-74
2021/06/03 01:47:15;;;;;;;6.40;5.40;;;18.00;99.90;;;;;;5012411;28;20572;-74
2021/06/03 01:49:43;;;;;;;10.87;6.03;;;17.90;99.90;;;;;;5001394;28;20474;-74
2021/06/03 01:52:11;;;;;;;7.37;5.77;;;17.90;99.90;;;;;;5008842;28;20442;-74
2021/06/03 01:54:40;;;;;;;5.50;4.90;;;17.80;99.90;;;;;;4978076;28;20469;-75
2021/06/03 01:57:10;;;;;;;6.07;5.17;;;17.80;99.90;;;;;;5010869;28;20560;-73
2021/06/03 01:59:44;;;;;;;5.20;4.70;;;17.80;99.90;;;;;;4993937;28;20544;-73
2021/06/03 02:02:10;;;;;;;6.20;5.13;;;17.70;99.90;;;;;;5011376;28;20432;-74
2021/06/03 02:04:38;;;;;;;5.90;5.17;;;17.60;99.90;;;;;;5005111;28;20491;-75
2021/06/03 02:07:05;;;;;;;5.90;4.90;;;17.70;99.90;;;;;;4991173;28;20477;-74
2021/06/03 02:09:33;;;;;;;6.17;5.40;;;17.60;99.90;;;;;;4991429;28;20477;-74
2021/06/03 02:12:07;;;;;;;6.23;5.13;;;17.60;99.90;;;;;;5012952;28;20477;-75
2021/06/03 02:14:40;;;;;;;6.77;5.83;;;17.50;99.90;;;;;;5012113;28;20464;-76
2021/06/03 02:17:17;;;;;;;6.80;5.40;;;17.70;99.90;;;;;;5007269;28;20536;-75
2021/06/03 02:20:00;;;;;;;5.90;5.40;;;17.80;99.90;;;;;;4991152;28;20478;-74
2021/06/03 02:22:32;;;;;;;7.10;5.80;;;17.80;99.90;;;;;;5015220;28;20499;-73
2021/06/03 02:25:01;;;;;;;6.73;6.03;;;17.80;99.90;;;;;;5011779;28;20457;-74
2021/06/03 02:27:28;;;;;;;6.43;5.70;;;17.70;99.90;;;;;;5003972;28;21003;-74
2021/06/03 02:29:55;;;;;;;9.17;6.00;;;17.70;99.90;;;;;;4991736;28;20469;-74
2021/06/03 02:32:31;;;;;;;5.50;5.00;;;17.70;99.90;;;;;;5012382;28;20425;-74
2021/06/03 02:35:04;;;;;;;6.27;5.67;;;17.80;99.90;;;;;;4996288;28;20520;-74
2021/06/03 02:37:31;;;;;;;5.57;4.93;;;17.80;99.90;;;;;;4991083;28;20512;-74
2021/06/03 02:40:02;;;;;;;6.00;5.40;;;17.80;99.90;;;;;;4992397;28;20895;-74
2021/06/03 02:42:33;;;;;;;6.50;5.90;;;17.80;99.90;;;;;;5010737;28;20786;-74
2021/06/03 02:45:03;;;;;;;8.60;5.23;;;17.80;99.90;;;;;;5025986;28;20457;-73
2021/06/03 02:47:31;;;;;;;8.50;5.40;;;17.90;99.90;;;;;;4991404;28;20454;-74
2021/06/03 02:49:58;;;;;;;7.10;5.27;;;17.80;99.90;;;;;;4991093;28;20469;-74
2021/06/03 02:52:28;;;;;;;10.70;6.50;;;17.80;99.90;;;;;;4994916;28;20528;-74
2021/06/03 02:54:55;;;;;;;7.30;6.17;;;17.80;99.90;;;;;;5008172;28;20464;-73
2021/06/03 02:57:22;;;;;;;5.60;5.00;;;17.80;99.90;;;;;;4991084;28;20466;-74
2021/06/03 02:59:50;;;;;;;6.90;5.70;;;17.60;99.90;;;;;;4992156;28;20481;-75
2021/06/03 03:02:17;;;;;;;7.43;6.40;;;17.60;99.90;;;;;;4994032;28;20525;-75
2021/06/03 03:04:45;;;;;;;6.80;6.17;;;17.60;99.90;;;;;;5008509;28;20465;-74
2021/06/03 03:07:13;;;;;;;6.33;5.83;;;17.60;99.90;;;;;;5009886;28;20453;-74
2021/06/03 03:09:40;;;;;;;6.53;5.33;;;17.60;99.90;;;;;;5002254;28;20793;-75
2021/06/03 03:12:09;;;;;;;6.73;5.60;;;17.60;99.90;;;;;;5004177;28;20446;-75
2021/06/03 03:14:38;;;;;;;5.43;4.93;;;17.50;99.90;;;;;;4990440;28;20457;-74
2021/06/03 03:17:05;;;;;;;5.43;4.93;;;17.50;99.90;;;;;;5010137;28;20441;-74
2021/06/03 03:19:33;;;;;;;6.50;5.90;;;17.50;99.90;;;;;;5006893;28;21065;-73
2021/06/03 03:22:03;;;;;;;6.80;6.20;;;17.50;99.90;;;;;;5030569;28;20491;-75
2021/06/03 03:24:32;;;;;;;6.73;5.03;;;17.40;99.90;;;;;;5002302;28;20808;-74
2021/06/03 03:27:03;;;;;;;5.33;4.87;;;17.40;99.90;;;;;;5011001;28;20465;-74
2021/06/03 03:29:30;;;;;;;7.23;6.17;;;17.40;99.90;;;;;;5012107;28;20460;-75
2021/06/03 03:32:00;;;;;;;5.30;4.83;;;17.40;99.90;;;;;;4998355;28;20999;-73
2021/06/03 03:34:28;;;;;;;6.60;6.00;;;17.50;99.90;;;;;;4982254;28;20915;-73
2021/06/03 03:36:58;;;;;;;5.60;5.10;;;17.50;99.90;;;;;;4995585;28;20516;-74
2021/06/03 03:39:25;;;;;;;5.83;5.23;;;17.60;99.90;;;;;;4994078;28;20540;-74
2021/06/03 03:41:53;;;;;;;6.73;5.10;;;17.60;99.90;;;;;;5010045;28;20803;-74
2021/06/03 03:44:24;;;;;;;10.57;5.40;;;17.60;99.90;;;;;;4995370;28;20464;-75
2021/06/03 03:46:53;;;;;;;5.47;4.67;;;17.70;99.90;;;;;;4994171;28;20438;-75
2021/06/03 03:49:23;;;;;;;5.83;5.33;;;17.70;99.90;;;;;;5013699;28;20547;-74
2021/06/03 03:51:55;;;;;;;5.70;5.00;;;17.70;99.90;;;;;;5030070;28;20444;-73
2021/06/03 03:54:26;;;;;;;5.43;4.93;;;17.70;99.90;;;;;;4993478;28;20588;-73
2021/06/03 03:56:53;;;;;;;6.77;5.10;;;17.80;99.90;;;;;;5019407;28;20449;-74
2021/06/03 03:59:20;;;;;;;6.20;5.40;;;17.80;99.90;;;;;;4993464;28;20458;-75
2021/06/03 04:01:51;;;;;;;6.13;5.43;;;17.90;99.90;;;;;;5004686;28;20487;-75
2021/06/03 04:04:22;;;;;;;5.87;5.27;;;17.90;99.90;;;;;;5012408;28;20460;-74
2021/06/03 04:06:51;;;;;;;6.17;5.57;;;17.90;99.90;;;;;;5021634;28;20429;-75
2021/06/03 04:09:20;;;;;;;5.30;4.80;;;18.00;99.90;;;;;;5012351;28;20524;-73
2021/06/03 04:11:49;;;;;;;6.03;5.53;;;17.90;99.90;;;;;;4996205;28;20446;-74
2021/06/03 04:14:17;;;;;;;7.50;5.70;;;18.00;99.90;;;;;;4994854;28;20462;-74
2021/06/03 04:16:45;;;;;;;5.70;5.20;;;18.10;99.90;;;;;;4995099;28;20488;-76
2021/06/03 04:19:13;;;;;;;5.30;4.80;;;18.10;99.90;;;;;;4993989;28;20460;-74
2021/06/03 04:21:40;;;;;;;7.17;5.57;;;18.10;99.90;;;;;;4992035;28;20456;-75
2021/06/03 04:24:12;;;;;;;6.40;5.47;;;18.20;99.90;;;;;;5013365;28;20461;-74
2021/06/03 04:26:39;;;;;;;5.50;5.00;;;18.20;99.90;;;;;;5012839;28;20445;-74
2021/06/03 04:29:05;;;;;;;5.10;4.60;;;18.30;99.90;;;;;;5021546;28;20476;-74
2021/06/03 04:31:35;;;;;;;7.67;5.43;;;18.30;99.90;;;;;;5011698;28;21001;-73
2021/06/03 04:34:02;;;;;;;5.33;4.83;;;18.40;99.90;;;;;;4992923;28;20453;-74
2021/06/03 04:36:30;;;;;;;7.33;6.03;;;18.50;99.90;;;;;;4997073;28;20546;-74
2021/06/03 04:38:57;;;;;;;5.40;5.00;;;18.50;99.90;;;;;;5008884;28;20951;-75
2021/06/03 04:41:24;;;;;;;5.60;5.10;;;18.60;99.90;;;;;;4993835;28;20528;-72
2021/06/03 04:43:51;;;;;;;4.83;4.40;;;18.70;99.90;;;;;;4994370;28;20453;-74
2021/06/03 04:46:18;;;;;;;5.20;4.70;;;18.70;99.90;;;;;;5010005;28;20915;-74
2021/06/03 04:48:45;;;;;;;5.30;4.90;;;18.80;99.90;;;;;;4993543;28;20457;-75
2021/06/03 04:51:12;;;;;;;6.07;5.47;;;18.80;99.90;;;;;;4993473;28;20541;-73
2021/06/03 04:53:39;;;;;;;5.80;5.30;;;18.90;99.90;;;;;;4976784;28;20439;-72
2021/06/03 04:56:06;;;;;;;5.30;4.83;;;19.00;99.90;;;;;;5002512;28;20803;-73
2021/06/03 04:58:33;;;;;;;7.27;5.80;;;19.00;99.90;;;;;;5005382;28;20982;-74
2021/06/03 05:01:00;;;;;;;6.47;5.87;;;19.10;99.90;;;;;;4993935;28;20473;-74
2021/06/03 05:03:30;;;;;;;6.20;5.37;;;19.20;99.90;;;;;;5018124;28;20442;-74
2021/06/03 05:05:57;;;;;;;5.97;4.80;;;19.30;99.90;;;;;;4993444;28;20475;-73
2021/06/03 05:08:25;;;;;;;6.73;5.40;;;19.30;99.90;;;;;;4992915;28;20452;-74
2021/06/03 05:10:55;;;;;;;6.33;5.33;;;19.40;99.90;;;;;;4976176;28;20524;-73
2021/06/03 05:13:26;;;;;;;6.87;6.27;;;19.50;99.90;;;;;;5009314;28;20436;-75
2021/06/03 05:15:53;;;;;;;6.40;5.07;;;19.70;99.90;;;;;;4999304;28;20458;-73
2021/06/03 05:18:20;;;;;;;7.27;5.80;;;19.90;99.90;;;;;;4995075;28;20981;-74
2021/06/03 05:20:47;;;;;;;10.30;5.80;;;20.00;99.90;;;;;;5007793;28;20481;-73
2021/06/03 05:23:22;;;;;;;7.77;6.37;;;20.10;99.90;;;;;;4992873;28;20432;-75
2021/06/03 05:25:50;;;;;;;5.80;5.30;;;20.20;99.90;;;;;;4994669;28;20527;-74
2021/06/03 05:28:18;;;;;;;6.73;5.40;;;20.10;99.90;;;;;;5008314;28;20523;-73
2021/06/03 05:30:48;;;;;;;14.23;6.20;;;20.10;99.90;;;;;;4995337;28;20985;-74
2021/06/03 05:33:15;;;;;;;6.77;6.03;;;20.10;99.90;;;;;;4994869;28;20850;-73
2021/06/03 05:35:45;;;;;;;5.87;5.27;;;20.10;99.90;;;;;;5026001;28;20510;-74
2021/06/03 05:38:12;;;;;;;6.10;5.50;;;20.10;99.90;;;;;;4992802;28;20454;-73
2021/06/03 05:40:39;;;;;;;6.70;6.10;;;20.10;99.90;;;;;;4993198;28;20476;-73
2021/06/03 05:43:09;;;;;;;8.60;6.13;;;20.10;99.90;;;;;;4992511;28;20426;-74
2021/06/03 05:45:36;;;;;;;6.30;5.70;;;20.00;99.90;;;;;;5003640;28;20461;-74
2021/06/03 05:48:08;;;;;;;5.97;5.37;;;20.00;99.90;;;;;;5007690;28;20442;-73
2021/06/03 05:50:35;;;;;;;5.90;5.40;;;19.90;99.90;;;;;;4976005;28;20501;-74
2021/06/03 05:53:02;;;;;;;7.10;5.90;;;19.90;99.90;;;;;;5009942;28;20520;-74
2021/06/03 05:55:29;;;;;;;7.97;6.17;;;19.90;99.90;;;;;;4993093;28;20568;-74
2021/06/03 05:57:56;;;;;;;7.23;6.27;;;19.90;99.90;;;;;;4993192;28;20489;-74
2021/06/03 06:00:32;;;;;;;6.77;6.17;;;19.90;99.90;;;;;;5007857;28;20512;-74
2021/06/03 06:03:17;;;;;;;6.77;6.07;;;20.00;99.90;;;;;;5011566;28;20428;-73
2021/06/03 06:08:30;;;;;;;7.07;6.47;;;20.00;99.90;;;;;;5008147;28;20533;-73
2021/06/03 06:11:00;;;;;;;6.33;5.80;;;20.10;99.90;;;;;;5007261;28;20508;-73
2021/06/03 06:13:29;;;;;;;6.40;5.80;;;20.10;99.90;;;;;;4990791;28;20517;-74
2021/06/03 06:15:57;;;;;;;9.73;5.53;;;20.10;99.90;;;;;;5004946;28;20527;-73
2021/06/03 06:18:24;;;;;;;6.60;6.00;;;20.10;99.90;;;;;;5004531;28;20501;-74
2021/06/03 06:20:56;;;;;;;7.13;6.43;;;20.20;99.90;;;;;;5010931;28;20569;-73
2021/06/03 06:23:29;;;;;;;6.53;5.83;;;20.30;99.90;;;;;;5010058;28;20850;-73
2021/06/03 06:25:59;;;;;;;5.70;5.20;;;20.30;99.90;;;;;;4998443;28;20465;-73
2021/06/03 06:28:27;;;;;;;9.00;6.53;;;20.30;99.90;;;;;;4977253;28;20579;-74
2021/06/03 06:30:54;;;;;;;6.40;5.70;;;20.30;99.90;;;;;;4985292;28;20458;-73
2021/06/03 06:33:22;;;;;;;7.10;6.40;;;20.20;99.90;;;;;;4995232;28;20472;-74
2021/06/03 06:35:50;;;;;;;7.07;6.37;;;20.20;99.90;;;;;;5025398;28;20472;-74
2021/06/03 06:38:22;;;;;;;5.87;5.40;;;20.20;99.90;;;;;;4992757;28;20486;-74
2021/06/03 06:40:50;;;;;;;9.63;7.70;;;20.10;99.90;;;;;;4996664;28;21000;-75
2021/06/03 06:43:17;;;;;;;6.23;5.73;;;20.10;99.90;;;;;;5004383;28;21036;-75
2021/06/03 06:45:46;;;;;;;6.73;5.87;;;20.10;99.90;;;;;;4993668;28;20468;-74
2021/06/03 06:48:15;;;;;;;7.70;6.00;;;20.10;99.90;;;;;;5011722;28;20946;-74
2021/06/03 06:50:51;;;;;;;7.50;6.80;;;20.10;99.90;;;;;;5020214;28;20478;-74
2021/06/03 06:53:21;;;;;;;6.73;6.13;;;20.10;99.90;;;;;;5007950;28;20440;-73
2021/06/03 06:55:49;;;;;;;9.20;6.27;;;20.10;99.90;;;;;;4990339;28;20490;-74
2021/06/03 06:58:16;;;;;;;5.63;5.03;;;20.10;99.90;;;;;;4991216;28;20533;-74
2021/06/03 07:00:44;;;;;;;6.73;6.13;;;20.10;99.90;;;;;;4990118;28;20533;-75
2021/06/03 07:03:12;;;;;;;9.20;6.73;;;20.10;99.90;;;;;;4994507;28;20433;-76
2021/06/03 07:05:42;;;;;;;7.60;6.70;;;20.10;99.90;;;;;;5001657;28;20520;-79
2021/06/03 07:08:09;;;;;;;12.50;7.20;;;20.00;99.90;;;;;;5000987;28;20449;-76
2021/06/03 07:10:36;;;;;;;18.83;8.70;;;20.00;99.90;;;;;;5011833;28;21007;-77
2021/06/03 07:13:06;;;;;;;11.27;8.53;;;19.90;99.90;;;;;;5024943;28;20438;-72
2021/06/03 07:15:33;;;;;;;11.70;8.40;;;19.80;99.90;;;;;;5004821;28;20481;-75
2021/06/03 07:18:01;;;;;;;12.77;7.90;;;19.70;99.90;;;;;;5010978;28;20727;-75
2021/06/03 07:20:30;;;;;;;8.00;7.20;;;19.60;99.90;;;;;;4992053;28;20553;-76
2021/06/03 07:23:06;;;;;;;12.57;8.30;;;19.60;99.90;;;;;;5009752;28;20425;-75
2021/06/03 07:25:39;;;;;;;11.67;7.43;;;19.60;99.90;;;;;;5011979;28;20511;-75
2021/06/03 07:28:07;;;;;;;8.40;7.60;;;19.60;99.90;;;;;;5012527;28;20440;-76
2021/06/03 07:30:34;;;;;;;8.33;7.23;;;19.50;99.90;;;;;;5012416;28;20453;-76
2021/06/03 07:33:02;;;;;;;8.10;7.33;;;19.50;99.90;;;;;;5010644;28;20437;-76
2021/06/03 07:35:31;;;;;;;8.50;7.53;;;19.60;99.90;;;;;;4995367;28;20470;-76
2021/06/03 07:38:02;;;;;;;7.03;6.30;;;19.70;99.90;;;;;;5027609;28;20549;-75
2021/06/03 07:40:34;;;;;;;6.90;6.30;;;19.80;99.90;;;;;;5005829;28;20815;-75
2021/06/03 07:43:02;;;;;;;7.70;7.00;;;19.90;99.90;;;;;;5026938;28;20792;-76
2021/06/03 07:45:31;;;;;;;7.03;6.40;;;19.90;99.90;;;;;;4994976;28;20463;-75
2021/06/03 07:48:01;;;;;;;7.20;6.60;;;19.90;99.90;;;;;;4991865;28;20446;-76
2021/06/03 07:50:32;;;;;;;8.33;7.07;;;19.90;99.90;;;;;;4999731;28;20901;-75
2021/06/03 07:53:07;;;;;;;7.40;6.80;;;19.90;99.90;;;;;;4999747;28;20432;-75
2021/06/03 07:55:37;;;;;;;7.40;6.70;;;20.00;99.90;;;;;;5005674;28;20508;-75
2021/06/03 07:58:11;;;;;;;9.40;6.77;;;19.90;99.90;;;;;;4992027;28;20549;-75
2021/06/03 08:00:41;;;;;;;7.77;7.17;;;19.90;99.90;;;;;;4990357;28;21207;-75
2021/06/03 08:03:08;;;;;;;8.60;6.90;;;19.90;99.90;;;;;;4998579;28;20441;-76
2021/06/03 08:05:37;;;;;;;8.07;7.27;;;20.00;99.90;;;;;;4988038;28;20473;-74
2021/06/03 08:08:12;;;;;;;8.17;6.83;;;20.10;99.90;;;;;;5003921;28;20447;-77
2021/06/03 08:10:41;;;;;;;8.17;7.47;;;20.10;99.90;;;;;;4995699;28;20850;-76
2021/06/03 08:13:10;;;;;;;9.43;8.20;;;20.00;99.90;;;;;;5005347;28;20499;-76
2021/06/03 08:15:40;;;;;;;7.63;6.93;;;20.10;99.90;;;;;;5012238;28;20843;-75
2021/06/03 08:18:08;;;;;;;11.30;7.97;;;20.20;99.90;;;;;;4995536;28;20452;-77
2021/06/03 08:20:43;;;;;;;7.60;7.00;;;20.30;99.90;;;;;;4993857;28;20977;-76
2021/06/03 08:23:13;;;;;;;7.73;6.97;;;20.30;99.90;;;;;;4995541;28;20509;-73
2021/06/03 08:25:44;;;;;;;8.50;7.40;;;20.40;99.90;;;;;;4998997;28;20477;-72
2021/06/03 08:28:18;;;;;;;7.37;6.77;;;20.40;99.90;;;;;;5012808;28;20986;-74
2021/06/03 08:30:48;;;;;;;8.57;6.93;;;20.50;99.90;;;;;;4987799;28;20473;-75
2021/06/03 08:33:18;;;;;;;7.63;6.93;;;20.70;99.90;;;;;;4994087;28;20436;-75
2021/06/03 08:35:46;;;;;;;8.30;7.47;;;20.70;99.90;;;;;;4997451;28;20472;-74
2021/06/03 08:38:14;;;;;;;7.23;6.53;;;20.70;99.90;;;;;;4993824;28;20446;-75
2021/06/03 08:40:53;;;;;;;8.27;7.30;;;20.70;99.90;;;;;;5004296;28;20466;-76
2021/06/03 08:43:28;;;;;;;7.20;6.60;;;20.70;99.90;;;;;;4997174;28;20930;-76
2021/06/03 08:46:03;;;;;;;7.80;7.07;;;20.70;99.90;;;;;;5003110;28;20462;-75
2021/06/03 08:48:31;;;;;;;7.97;7.27;;;20.70;99.90;;;;;;5011803;28;20460;-76
2021/06/03 08:51:01;;;;;;;8.83;7.40;;;20.80;99.90;;;;;;4995931;28;20462;-76
2021/06/03 08:53:29;;;;;;;6.83;6.13;;;20.90;99.90;;;;;;4998071;28;20501;-76
2021/06/03 08:56:14;;;;;;;8.03;7.23;;;20.90;99.90;;;;;;5008123;28;20473;-73
2021/06/03 08:58:47;;;;;;;8.20;7.40;;;21.00;99.90;;;;;;4992998;28;20859;-74
2021/06/03 09:01:20;;;;;;;7.83;7.20;;;20.90;99.90;;;;;;5011790;28;20571;-74
2021/06/03 09:03:48;;;;;;;7.20;6.50;;;21.10;99.90;;;;;;5002628;28;20434;-71
2021/06/03 09:06:17;;;;;;;8.17;7.47;;;21.20;99.90;;;;;;4993746;28;20446;-74
2021/06/03 09:08:59;;;;;;;9.20;7.27;;;21.30;99.90;;;;;;4992918;28;20488;-76
2021/06/03 09:11:31;;;;;;;7.60;6.90;;;21.30;99.90;;;;;;5002766;28;20504;-76
2021/06/03 09:14:05;;;;;;;8.80;6.97;;;21.30;99.90;;;;;;4993423;28;20472;-76
2021/06/03 09:16:33;;;;;;;8.90;7.97;;;21.30;99.90;;;;;;5010503;28;20798;-76
2021/06/03 09:19:12;;;;;;;7.70;7.00;;;21.30;99.90;;;;;;5000255;28;20537;-75
2021/06/03 09:21:48;;;;;;;7.20;6.60;;;21.30;99.90;;;;;;5009581;28;20835;-74
2021/06/03 09:24:17;;;;;;;7.37;6.77;;;21.30;99.90;;;;;;5012014;28;20457;-75
2021/06/03 09:26:49;;;;;;;8.07;7.33;;;21.40;99.90;;;;;;5000608;28;21026;-75
2021/06/03 09:29:24;;;;;;;7.50;6.80;;;21.60;99.90;;;;;;4993600;28;20468;-75
2021/06/03 09:31:53;;;;;;;7.80;7.00;;;21.70;99.90;;;;;;4994428;28;20440;-74
2021/06/03 09:34:22;;;;;;;8.10;7.40;;;21.70;99.90;;;;;;4976990;28;20889;-75
2021/06/03 09:36:54;;;;;;;8.20;7.40;;;21.70;99.90;;;;;;5013440;28;20471;-74
2021/06/03 09:39:34;;;;;;;9.20;6.87;;;21.60;99.90;;;;;;4999144;28;20548;-75
2021/06/03 09:42:14;;;;;;;6.87;6.17;;;21.70;99.90;;;;;;5002495;28;20484;-75
2021/06/03 09:44:45;;;;;;;7.30;6.70;;;21.80;99.90;;;;;;5009226;28;20465;-75
2021/06/03 09:47:41;;;;;;;7.40;6.77;;;21.90;99.90;;;;;;4992381;28;20512;-75
2021/06/03 09:50:10;;;;;;;8.30;7.60;;;21.90;99.90;;;;;;4994747;28;21048;-74
2021/06/03 09:52:44;;;;;;;7.73;6.93;;;21.90;99.90;;;;;;5013370;28;20497;-76
2021/06/03 09:55:13;;;;;;;8.50;7.63;;;21.90;99.90;;;;;;4992712;28;20462;-74
2021/06/03 09:57:45;;;;;;;9.93;9.00;;;22.00;99.90;;;;;;5008503;28;20508;-75
2021/06/03 10:00:15;;;;;;;8.13;7.33;;;22.00;99.90;;;;;;4992652;28;20501;-74
2021/06/03 10:02:44;;;;;;;8.30;7.50;;;22.10;99.90;;;;;;5008302;28;20554;-74
2021/06/03 10:05:15;;;;;;;8.13;7.43;;;22.10;99.90;;;;;;5001841;28;20481;-75
2021/06/03 10:07:56;;;;;;;9.07;8.00;;;22.20;99.90;;;;;;5009485;28;20461;-74
2021/06/03 10:10:26;;;;;;;8.60;7.90;;;22.30;99.90;;;;;;5014897;28;20469;-75
2021/06/03 10:13:03;;;;;;;11.70;8.13;;;22.30;99.90;;;;;;4993479;28;20480;-74
2021/06/03 10:15:30;;;;;;;8.40;7.70;;;22.40;99.90;;;;;;4976794;28;20990;-75
2021/06/03 10:18:10;;;;;;;8.27;7.13;;;22.60;99.90;;;;;;5011241;28;20631;-74
2021/06/03 10:20:41;;;;;;;8.60;7.70;;;22.80;99.90;;;;;;5010922;28;20547;-74
2021/06/03 10:23:18;;;;;;;8.10;7.40;;;22.80;99.90;;;;;;5004187;28;20486;-74
2021/06/03 10:26:01;;;;;;;10.77;9.67;;;22.80;99.90;;;;;;5005629;28;20479;-74
2021/06/03 10:28:32;;;;;;;10.77;8.33;;;22.80;99.90;;;;;;4991543;28;20460;-75
2021/06/03 10:31:12;;;;;;;10.40;9.40;;;22.80;99.90;;;;;;5002931;28;20563;-74
2021/06/03 10:33:41;;;;;;;9.73;8.93;;;22.80;99.90;;;;;;5010921;28;20887;-75
2021/06/03 10:36:10;;;;;;;10.43;9.53;;;22.80;99.90;;;;;;4994617;28;20452;-75
2021/06/03 10:38:39;;;;;;;9.63;8.63;;;22.80;99.90;;;;;;4992236;28;21036;-75
2021/06/03 10:41:09;;;;;;;10.00;9.20;;;22.70;99.90;;;;;;4990954;28;20817;-75
2021/06/03 10:43:38;;;;;;;10.67;9.70;;;;;;;;;;4997387;28;20435;-75
2021/06/03 10:46:06;;;;;;;9.50;8.60;;;22.90;99.90;;;;;;5027365;28;20432;-74
2021/06/03 10:48:34;;;;;;;8.77;7.23;;;22.90;99.90;;;;;;4994397;28;20506;-74
2021/06/03 10:51:05;;;;;;;11.30;7.70;;;22.80;99.90;;;;;;4992988;28;20458;-74
2021/06/03 10:53:32;;;;;;;8.43;7.70;;;22.80;99.90;;;;;;5011660;28;20770;-74
2021/06/03 10:56:13;;;;;;;9.07;8.17;;;22.80;99.90;;;;;;4991461;28;20467;-74
2021/06/03 10:58:45;;;;;;;7.70;7.00;;;22.80;99.90;;;;;;4997574;28;20755;-74
2021/06/03 11:01:17;;;;;;;7.80;7.10;;;22.80;99.90;;;;;;5008061;28;20777;-75
2021/06/03 11:03:59;;;;;;;8.20;7.40;;;22.70;99.90;;;;;;5000966;28;20484;-75
2021/06/03 11:06:28;;;;;;;8.57;7.77;;;22.70;99.90;;;;;;5011425;28;20446;-74
2021/06/03 11:08:55;;;;;;;6.50;5.33;;;22.60;99.90;;;;;;5002736;28;21032;-74
2021/06/03 11:11:28;;;;;;;4.63;4.23;;;22.60;99.90;;;;;;4993361;28;20504;-74
2021/06/03 11:14:06;;;;;;;6.93;2.73;;;22.50;99.90;;;;;;4991608;28;20460;-73
2021/06/03 11:16:36;;;;;;;5.07;2.73;;;22.40;99.90;;;;;;5002367;28;20531;-74
2021/06/03 11:19:15;;;;;;;3.87;2.90;;;22.30;99.90;;;;;;4996205;28;20469;-75
2021/06/03 11:21:46;;;;;;;3.43;3.00;;;22.20;99.90;;;;;;5001471;28;20488;-74
2021/06/03 11:24:23;;;;;;;3.10;2.73;;;22.30;99.90;;;;;;5018969;28;20481;-74
2021/06/03 11:26:59;;;;;;;3.03;2.73;;;22.20;99.90;;;;;;4992860;28;20507;-75
2021/06/03 11:29:42;;;;;;;3.83;3.43;;;22.20;99.90;;;;;;5010142;28;20460;-74
2021/06/03 11:32:12;;;;;;;3.60;3.30;;;22.30;99.90;;;;;;4991153;28;20438;-76
2021/06/03 11:34:39;;;;;;;4.50;3.10;;;22.40;99.90;;;;;;5013633;28;20471;-75
2021/06/03 11:37:19;;;;;;;5.27;3.23;;;22.60;99.90;;;;;;4991995;28;20488;-74
2021/06/03 11:40:07;;;;;;;4.53;3.30;;;22.70;99.90;;;;;;5000431;28;20472;-74
2021/06/03 11:42:39;;;;;;;4.00;3.60;;;23.00;99.90;;;;;;4994878;28;20793;-74
2021/06/03 11:45:20;;;;;;;4.77;3.67;;;23.20;99.90;;;;;;4995278;28;20808;-73
2021/06/03 11:47:48;;;;;;;5.23;4.60;;;23.50;99.90;;;;;;4997793;28;20533;-74
2021/06/03 11:50:18;;;;;;;10.23;6.40;;;23.70;99.90;;;;;;5009038;28;20475;-74
2021/06/03 11:53:16;;;;;;;6.87;6.27;;;23.80;99.90;;;;;;5002623;28;20470;-75
2021/06/03 11:56:18;;;;;;;6.00;5.50;;;23.90;99.90;;;;;;5010925;28;20475;-73
2021/06/03 11:58:50;;;;;;;8.20;6.37;;;23.80;99.90;;;;;;4982093;28;20481;-75
2021/06/03 12:01:31;;;;;;;5.60;5.00;;;23.60;99.90;;;;;;5006480;28;20439;-75
2021/06/03 12:04:11;;;;;;;5.83;5.23;;;23.40;99.90;;;;;;4996590;28;20540;-74
2021/06/03 12:06:41;;;;;;;5.87;5.10;;;23.20;99.90;;;;;;5015537;28;20449;-74
2021/06/03 12:09:26;;;;;;;5.73;5.23;;;23.10;99.90;;;;;;5003512;28;20834;-73
2021/06/03 12:12:02;;;;;;;6.03;5.43;;;22.90;99.90;;;;;;4994030;28;20445;-74
2021/06/03 12:14:42;;;;;;;5.47;4.97;;;22.80;99.90;;;;;;4997041;28;20469;-76
2021/06/03 12:17:10;;;;;;;5.73;5.33;;;22.70;99.90;;;;;;5007678;28;20457;-76
2021/06/03 12:19:46;;;;;;;5.63;5.07;;;22.50;99.90;;;;;;4995366;28;20462;-76
2021/06/03 12:22:16;;;;;;;6.13;4.80;;;22.30;99.90;;;;;;4996399;28;20458;-76
2021/06/03 12:24:46;;;;;;;6.10;5.53;;;22.20;99.90;;;;;;4998704;28;20530;-75
2021/06/03 12:27:25;;;;;;;5.70;5.20;;;22.00;99.90;;;;;;5013890;28;20886;-74
2021/06/03 12:29:54;;;;;;;9.53;6.83;;;21.90;99.90;;;;;;4993757;28;21025;-72
2021/06/03 12:32:26;;;;;;;6.33;5.83;;;21.80;99.90;;;;;;4994838;28;20480;-75
2021/06/03 12:34:59;;;;;;;7.70;7.00;;;21.80;99.90;;;;;;4997774;28;20584;-75
2021/06/03 12:37:27;;;;;;;8.50;7.60;;;21.70;99.90;;;;;;5009000;28;20946;-75
2021/06/03 12:39:56;;;;;;;8.40;7.67;;;21.70;99.90;;;;;;5012400;28;20468;-76
2021/06/03 12:42:26;;;;;;;7.90;7.20;;;21.60;99.90;;;;;;5013728;28;20465;-75
2021/06/03 12:45:05;;;;;;;8.17;7.33;;;21.60;99.90;;;;;;5013305;28;20815;-75
2021/06/03 12:47:38;;;;;;;9.43;7.70;;;21.60;99.90;;;;;;4994704;28;20453;-75
2021/06/03 12:50:17;;;;;;;8.53;7.73;;;21.70;99.90;;;;;;5008719;28;20816;-73
2021/06/03 12:52:53;;;;;;;7.73;7.03;;;21.60;99.90;;;;;;4993223;28;20449;-79
2021/06/03 12:55:28;;;;;;;9.63;7.77;;;21.80;99.90;;;;;;5005302;28;20580;-75
2021/06/03 13:01:04;;;;;;;8.30;6.37;;;22.00;99.90;;;;;;4998197;28;20490;-75
2021/06/03 13:03:35;;;;;;;7.17;6.30;;;22.10;99.90;;;;;;5011511;28;20563;-75
2021/06/03 13:06:08;;;;;;;8.90;5.93;;;22.10;99.90;;;;;;4995905;28;20469;-75
2021/06/03 13:09:00;;;;;;;6.47;5.87;;;22.30;99.90;;;;;;4995949;28;20462;-74
2021/06/03 13:11:31;;;;;;;4.93;4.53;;;22.30;99.90;;;;;;5005200;28;20449;-74